sensor_id;sensor_type;location;lat;lon;timestamp;noise_LAeq;noise_LA_min;noise_LA_max;noise_LA01;noise_LA95
66335;Laerm;53138;51.496;6.410;2023-05-31T00:00:07;33.11;30.85;37.25;;
66335;Laerm;53138;51.496;6.410;2023-05-31T00:00:17;33.00;31.24;39.77;;
66335;Laerm;53138;51.496;6.410;2023-05-31T00:00:27;32.70;30.46;41.46;;
66335;Laerm;53138;51.496;6.410;2023-05-31T00:00:38;32.23;30.05;38.85;;
66335;Laerm;53138;51.496;6.410;2023-05-31T00:00:48;31.86;29.63;38.28;;
66335;Laerm;53138;51.496;6.410;2023-05-31T00:00:58;32.71;29.99;44.90;;
66335;Laerm;53138;51.496;6.410;2023-05-31T00:01:09;31.62;29.89;33.01;;
66335;Laerm;53138;51.496;6.410;2023-05-31T00:01:19;31.86;30.11;34.18;;
66335;Laerm;53138;51.496;6.410;2023-05-31T00:01:29;32.06;30.48;34.67;;
66335;Laerm;53138;51.496;6.410;2023-05-31T00:01:40;31.89;30.35;38.05;;
66335;Laerm;53138;51.496;6.410;2023-05-31T00:01:50;31.69;29.95;36.79;;
66335;Laerm;53138;51.496;6.410;2023-05-31T00:02:00;32.58;29.98;47.99;;
66335;Laerm;53138;51.496;6.410;2023-05-31T00:02:10;31.75;30.27;33.38;;
66335;Laerm;53138;51.496;6.410;2023-05-31T00:02:21;33.31;30.14;38.28;;
66335;Laerm;53138;51.496;6.410;2023-05-31T00:02:31;32.64;31.13;36.30;;
66335;Laerm;53138;51.496;6.410;2023-05-31T00:02:41;33.04;30.94;43.48;;
66335;Laerm;53138;51.496;6.410;2023-05-31T00:02:51;34.73;31.78;39.11;;
66335;Laerm;53138;51.496;6.410;2023-05-31T00:03:02;38.03;32.48;42.31;;
66335;Laerm;53138;51.496;6.410;2023-05-31T00:03:12;32.51;31.08;34.51;;
66335;Laerm;53138;51.496;6.410;2023-05-31T00:03:23;33.79;31.45;40.35;;
66335;Laerm;53138;51.496;6.410;2023-05-31T00:03:33;31.51;30.26;34.01;;
66335;Laerm;53138;51.496;6.410;2023-05-31T00:03:44;31.73;30.00;36.34;;
66335;Laerm;53138;51.496;6.410;2023-05-31T00:03:54;32.21;30.54;36.20;;
66335;Laerm;53138;51.496;6.410;2023-05-31T00:04:04;31.77;29.93;34.34;;
66335;Laerm;53138;51.496;6.410;2023-05-31T00:04:16;31.65;29.55;33.79;;
66335;Laerm;53138;51.496;6.410;2023-05-31T00:04:26;31.96;30.42;33.35;;
66335;Laerm;53138;51.496;6.410;2023-05-31T00:04:36;31.73;30.32;33.20;;
66335;Laerm;53138;51.496;6.410;2023-05-31T00:04:47;31.96;30.31;33.62;;
66335;Laerm;53138;51.496;6.410;2023-05-31T00:04:57;32.07;30.55;33.93;;
66335;Laerm;53138;51.496;6.410;2023-05-31T00:05:07;32.23;30.21;42.74;;
66335;Laerm;53138;51.496;6.410;2023-05-31T00:05:18;32.52;30.21;40.49;;
66335;Laerm;53138;51.496;6.410;2023-05-31T00:05:28;31.32;29.88;32.92;;
66335;Laerm;53138;51.496;6.410;2023-05-31T00:05:38;31.24;29.93;32.76;;
66335;Laerm;53138;51.496;6.410;2023-05-31T00:05:48;31.25;29.42;32.97;;
66335;Laerm;53138;51.496;6.410;2023-05-31T00:05:59;31.28;29.84;32.74;;
66335;Laerm;53138;51.496;6.410;2023-05-31T00:06:09;31.68;29.65;38.23;;
66335;Laerm;53138;51.496;6.410;2023-05-31T00:06:20;34.89;29.66;46.40;;
66335;Laerm;53138;51.496;6.410;2023-05-31T00:06:30;31.64;29.50;39.86;;
66335;Laerm;53138;51.496;6.410;2023-05-31T00:06:40;31.85;29.47;33.80;;
66335;Laerm;53138;51.496;6.410;2023-05-31T00:06:51;31.42;30.05;32.99;;
66335;Laerm;53138;51.496;6.410;2023-05-31T00:07:01;31.60;30.36;35.97;;
66335;Laerm;53138;51.496;6.410;2023-05-31T00:07:11;31.72;30.11;34.50;;
66335;Laerm;53138;51.496;6.410;2023-05-31T00:07:21;31.79;30.61;33.34;;
66335;Laerm;53138;51.496;6.410;2023-05-31T00:07:31;31.49;30.32;33.99;;
66335;Laerm;53138;51.496;6.410;2023-05-31T00:07:42;32.15;30.25;41.95;;
66335;Laerm;53138;51.496;6.410;2023-05-31T00:07:52;32.26;30.57;35.61;;
66335;Laerm;53138;51.496;6.410;2023-05-31T00:08:02;32.09;30.63;33.74;;
66335;Laerm;53138;51.496;6.410;2023-05-31T00:08:12;31.90;30.29;33.36;;
66335;Laerm;53138;51.496;6.410;2023-05-31T00:08:23;32.30;30.51;35.52;;
66335;Laerm;53138;51.496;6.410;2023-05-31T00:08:33;32.60;30.56;35.07;;
66335;Laerm;53138;51.496;6.410;2023-05-31T00:08:43;32.49;30.91;34.69;;
66335;Laerm;53138;51.496;6.410;2023-05-31T00:08:53;31.99;30.38;37.06;;
66335;Laerm;53138;51.496;6.410;2023-05-31T00:09:04;32.19;30.13;36.33;;
66335;Laerm;53138;51.496;6.410;2023-05-31T00:09:14;33.84;31.15;39.68;;
66335;Laerm;53138;51.496;6.410;2023-05-31T00:09:24;34.13;31.81;37.39;;
66335;Laerm;53138;51.496;6.410;2023-05-31T00:09:34;37.68;34.19;40.81;;
66335;Laerm;53138;51.496;6.410;2023-05-31T00:09:45;34.96;31.14;42.71;;
66335;Laerm;53138;51.496;6.410;2023-05-31T00:09:55;31.99;30.22;34.37;;
66335;Laerm;53138;51.496;6.410;2023-05-31T00:10:05;31.46;29.61;33.34;;
66335;Laerm;53138;51.496;6.410;2023-05-31T00:10:16;31.23;29.36;33.16;;
66335;Laerm;53138;51.496;6.410;2023-05-31T00:10:26;33.61;30.17;52.01;;
66335;Laerm;53138;51.496;6.410;2023-05-31T00:10:36;31.71;30.37;33.21;;
66335;Laerm;53138;51.496;6.410;2023-05-31T00:10:46;31.77;29.81;43.48;;
66335;Laerm;53138;51.496;6.410;2023-05-31T00:10:56;31.67;30.24;34.00;;
66335;Laerm;53138;51.496;6.410;2023-05-31T00:11:07;31.70;30.12;33.25;;
66335;Laerm;53138;51.496;6.410;2023-05-31T00:11:17;32.01;30.29;33.89;;
66335;Laerm;53138;51.496;6.410;2023-05-31T00:11:28;32.19;30.79;33.82;;
66335;Laerm;53138;51.496;6.410;2023-05-31T00:11:38;32.00;30.49;33.60;;
66335;Laerm;53138;51.496;6.410;2023-05-31T00:11:48;31.40;30.11;33.86;;
66335;Laerm;53138;51.496;6.410;2023-05-31T00:11:59;31.15;29.48;32.46;;
66335;Laerm;53138;51.496;6.410;2023-05-31T00:12:09;31.37;29.84;33.28;;
66335;Laerm;53138;51.496;6.410;2023-05-31T00:12:19;32.61;30.81;33.99;;
66335;Laerm;53138;51.496;6.410;2023-05-31T00:12:29;32.04;30.45;33.86;;
66335;Laerm;53138;51.496;6.410;2023-05-31T00:12:40;31.29;29.78;32.59;;
66335;Laerm;53138;51.496;6.410;2023-05-31T00:12:50;31.22;29.53;32.65;;
66335;Laerm;53138;51.496;6.410;2023-05-31T00:13:00;31.22;29.69;33.02;;
66335;Laerm;53138;51.496;6.410;2023-05-31T00:13:10;31.03;29.79;33.28;;
66335;Laerm;53138;51.496;6.410;2023-05-31T00:13:21;34.35;29.76;51.41;;
66335;Laerm;53138;51.496;6.410;2023-05-31T00:13:31;31.78;30.07;41.79;;
66335;Laerm;53138;51.496;6.410;2023-05-31T00:13:41;31.17;29.73;33.19;;
66335;Laerm;53138;51.496;6.410;2023-05-31T00:13:52;31.11;29.41;32.82;;
66335;Laerm;53138;51.496;6.410;2023-05-31T00:14:02;31.28;29.99;32.56;;
66335;Laerm;53138;51.496;6.410;2023-05-31T00:14:12;31.49;29.95;33.42;;
66335;Laerm;53138;51.496;6.410;2023-05-31T00:14:23;31.49;30.08;33.05;;
66335;Laerm;53138;51.496;6.410;2023-05-31T00:14:33;31.23;29.93;32.61;;
66335;Laerm;53138;51.496;6.410;2023-05-31T00:14:43;31.45;30.02;32.82;;
66335;Laerm;53138;51.496;6.410;2023-05-31T00:14:53;33.26;31.00;43.75;;
66335;Laerm;53138;51.496;6.410;2023-05-31T00:15:04;32.73;30.98;34.88;;
66335;Laerm;53138;51.496;6.410;2023-05-31T00:15:14;33.39;31.18;47.58;;
66335;Laerm;53138;51.496;6.410;2023-05-31T00:15:24;32.16;30.42;35.38;;
66335;Laerm;53138;51.496;6.410;2023-05-31T00:15:35;33.93;31.38;38.89;;
66335;Laerm;53138;51.496;6.410;2023-05-31T00:15:45;33.99;31.73;37.07;;
66335;Laerm;53138;51.496;6.410;2023-05-31T00:15:55;35.90;31.85;45.16;;
66335;Laerm;53138;51.496;6.410;2023-05-31T00:16:06;36.17;32.54;43.92;;
66335;Laerm;53138;51.496;6.410;2023-05-31T00:16:16;36.44;32.81;43.37;;
66335;Laerm;53138;51.496;6.410;2023-05-31T00:16:26;34.00;31.95;39.36;;
66335;Laerm;53138;51.496;6.410;2023-05-31T00:16:36;34.45;31.79;39.22;;
66335;Laerm;53138;51.496;6.410;2023-05-31T00:16:47;37.15;33.53;43.96;;
66335;Laerm;53138;51.496;6.410;2023-05-31T00:16:57;35.27;32.80;42.58;;
66335;Laerm;53138;51.496;6.410;2023-05-31T00:17:07;34.80;32.73;37.49;;
66335;Laerm;53138;51.496;6.410;2023-05-31T00:17:17;35.80;33.11;40.01;;
66335;Laerm;53138;51.496;6.410;2023-05-31T00:17:28;43.09;35.97;48.92;;
66335;Laerm;53138;51.496;6.410;2023-05-31T00:17:38;40.28;34.54;46.19;;
66335;Laerm;53138;51.496;6.410;2023-05-31T00:17:48;33.60;31.51;40.25;;
66335;Laerm;53138;51.496;6.410;2023-05-31T00:17:58;32.89;30.41;39.41;;
66335;Laerm;53138;51.496;6.410;2023-05-31T00:18:08;36.25;30.66;48.91;;
66335;Laerm;53138;51.496;6.410;2023-05-31T00:18:19;32.94;30.50;37.32;;
66335;Laerm;53138;51.496;6.410;2023-05-31T00:18:29;32.71;30.29;38.04;;
66335;Laerm;53138;51.496;6.410;2023-05-31T00:18:39;32.51;30.57;34.63;;
66335;Laerm;53138;51.496;6.410;2023-05-31T00:18:50;32.52;30.75;35.42;;
66335;Laerm;53138;51.496;6.410;2023-05-31T00:19:00;32.68;30.53;35.50;;
66335;Laerm;53138;51.496;6.410;2023-05-31T00:19:10;32.96;31.18;34.72;;
66335;Laerm;53138;51.496;6.410;2023-05-31T00:19:20;34.40;31.76;38.90;;
66335;Laerm;53138;51.496;6.410;2023-05-31T00:19:30;36.87;32.54;45.26;;
66335;Laerm;53138;51.496;6.410;2023-05-31T00:19:41;38.86;33.65;44.65;;
66335;Laerm;53138;51.496;6.410;2023-05-31T00:19:51;39.36;34.86;45.69;;
66335;Laerm;53138;51.496;6.410;2023-05-31T00:20:01;35.35;31.97;41.32;;
66335;Laerm;53138;51.496;6.410;2023-05-31T00:20:11;32.24;30.52;37.12;;
66335;Laerm;53138;51.496;6.410;2023-05-31T00:20:22;32.87;30.23;46.17;;
66335;Laerm;53138;51.496;6.410;2023-05-31T00:20:32;31.74;30.29;34.73;;
66335;Laerm;53138;51.496;6.410;2023-05-31T00:20:42;34.19;30.36;49.54;;
66335;Laerm;53138;51.496;6.410;2023-05-31T00:20:53;32.45;30.59;35.08;;
66335;Laerm;53138;51.496;6.410;2023-05-31T00:21:03;32.48;30.98;34.12;;
66335;Laerm;53138;51.496;6.410;2023-05-31T00:21:13;32.09;30.33;34.69;;
66335;Laerm;53138;51.496;6.410;2023-05-31T00:21:23;32.01;30.47;40.33;;
66335;Laerm;53138;51.496;6.410;2023-05-31T00:21:34;31.85;30.10;36.03;;
66335;Laerm;53138;51.496;6.410;2023-05-31T00:21:45;33.16;31.15;35.92;;
66335;Laerm;53138;51.496;6.410;2023-05-31T00:21:55;33.43;31.30;36.18;;
66335;Laerm;53138;51.496;6.410;2023-05-31T00:22:06;31.73;30.20;33.33;;
66335;Laerm;53138;51.496;6.410;2023-05-31T00:22:16;31.81;30.53;33.53;;
66335;Laerm;53138;51.496;6.410;2023-05-31T00:22:27;32.54;30.43;34.59;;
66335;Laerm;53138;51.496;6.410;2023-05-31T00:22:37;33.03;31.01;34.94;;
66335;Laerm;53138;51.496;6.410;2023-05-31T00:22:48;33.01;30.69;45.67;;
66335;Laerm;53138;51.496;6.410;2023-05-31T00:22:58;34.87;31.10;42.34;;
66335;Laerm;53138;51.496;6.410;2023-05-31T00:23:08;40.57;34.45;46.93;;
66335;Laerm;53138;51.496;6.410;2023-05-31T00:23:18;43.58;36.21;53.02;;
66335;Laerm;53138;51.496;6.410;2023-05-31T00:23:28;39.36;33.62;48.03;;
66335;Laerm;53138;51.496;6.410;2023-05-31T00:23:39;36.88;32.79;43.33;;
66335;Laerm;53138;51.496;6.410;2023-05-31T00:23:49;37.49;33.26;41.44;;
66335;Laerm;53138;51.496;6.410;2023-05-31T00:23:59;38.84;34.42;45.26;;
66335;Laerm;53138;51.496;6.410;2023-05-31T00:24:10;34.59;32.33;37.07;;
66335;Laerm;53138;51.496;6.410;2023-05-31T00:24:20;34.67;31.14;43.25;;
66335;Laerm;53138;51.496;6.410;2023-05-31T00:24:30;34.41;31.83;44.29;;
66335;Laerm;53138;51.496;6.410;2023-05-31T00:24:41;35.69;31.83;44.11;;
66335;Laerm;53138;51.496;6.410;2023-05-31T00:24:51;32.32;30.22;36.44;;
66335;Laerm;53138;51.496;6.410;2023-05-31T00:25:01;32.93;30.49;35.55;;
66335;Laerm;53138;51.496;6.410;2023-05-31T00:25:12;33.30;31.22;35.53;;
66335;Laerm;53138;51.496;6.410;2023-05-31T00:25:22;36.02;32.56;37.90;;
66335;Laerm;53138;51.496;6.410;2023-05-31T00:25:32;32.68;31.07;34.17;;
66335;Laerm;53138;51.496;6.410;2023-05-31T00:25:42;32.39;30.97;34.37;;
66335;Laerm;53138;51.496;6.410;2023-05-31T00:25:53;32.27;30.34;36.24;;
66335;Laerm;53138;51.496;6.410;2023-05-31T00:26:03;33.02;31.24;35.04;;
66335;Laerm;53138;51.496;6.410;2023-05-31T00:26:13;35.15;32.53;40.42;;
66335;Laerm;53138;51.496;6.410;2023-05-31T00:26:23;36.08;32.90;45.85;;
66335;Laerm;53138;51.496;6.410;2023-05-31T00:26:34;35.81;32.16;44.94;;
66335;Laerm;53138;51.496;6.410;2023-05-31T00:26:44;32.89;30.81;45.83;;
66335;Laerm;53138;51.496;6.410;2023-05-31T00:26:54;33.79;30.69;45.27;;
66335;Laerm;53138;51.496;6.410;2023-05-31T00:27:04;33.58;31.21;35.90;;
66335;Laerm;53138;51.496;6.410;2023-05-31T00:27:16;38.45;32.49;55.51;;
66335;Laerm;53138;51.496;6.410;2023-05-31T00:27:26;35.82;33.65;39.13;;
66335;Laerm;53138;51.496;6.410;2023-05-31T00:27:36;35.85;32.06;41.80;;
66335;Laerm;53138;51.496;6.410;2023-05-31T00:27:46;32.32;30.45;34.12;;
66335;Laerm;53138;51.496;6.410;2023-05-31T00:27:56;32.07;30.75;33.36;;
66335;Laerm;53138;51.496;6.410;2023-05-31T00:28:07;31.86;30.43;33.27;;
66335;Laerm;53138;51.496;6.410;2023-05-31T00:28:17;31.78;30.39;33.43;;
66335;Laerm;53138;51.496;6.410;2023-05-31T00:28:27;31.55;29.90;34.29;;
66335;Laerm;53138;51.496;6.410;2023-05-31T00:28:37;32.29;30.07;34.03;;
66335;Laerm;53138;51.496;6.410;2023-05-31T00:28:48;33.39;30.59;39.41;;
66335;Laerm;53138;51.496;6.410;2023-05-31T00:28:58;32.63;30.68;38.63;;
66335;Laerm;53138;51.496;6.410;2023-05-31T00:29:08;32.44;30.74;38.47;;
66335;Laerm;53138;51.496;6.410;2023-05-31T00:29:19;31.83;30.11;33.17;;
66335;Laerm;53138;51.496;6.410;2023-05-31T00:29:29;31.98;30.68;33.25;;
66335;Laerm;53138;51.496;6.410;2023-05-31T00:29:39;32.29;30.62;37.55;;
66335;Laerm;53138;51.496;6.410;2023-05-31T00:29:50;42.36;30.58;57.51;;
66335;Laerm;53138;51.496;6.410;2023-05-31T00:30:00;39.03;30.79;54.48;;
66335;Laerm;53138;51.496;6.410;2023-05-31T00:30:10;33.38;30.60;43.48;;
66335;Laerm;53138;51.496;6.410;2023-05-31T00:30:21;33.95;31.43;38.63;;
66335;Laerm;53138;51.496;6.410;2023-05-31T00:30:31;33.25;31.86;35.42;;
66335;Laerm;53138;51.496;6.410;2023-05-31T00:30:41;32.67;31.30;34.29;;
66335;Laerm;53138;51.496;6.410;2023-05-31T00:30:51;33.07;31.30;35.93;;
66335;Laerm;53138;51.496;6.410;2023-05-31T00:31:02;34.69;31.76;36.51;;
66335;Laerm;53138;51.496;6.410;2023-05-31T00:31:13;35.14;31.81;44.83;;
66335;Laerm;53138;51.496;6.410;2023-05-31T00:31:23;36.80;33.06;43.32;;
66335;Laerm;53138;51.496;6.410;2023-05-31T00:31:33;33.71;31.98;37.08;;
66335;Laerm;53138;51.496;6.410;2023-05-31T00:31:44;34.15;31.53;45.18;;
66335;Laerm;53138;51.496;6.410;2023-05-31T00:31:54;33.02;30.94;37.57;;
66335;Laerm;53138;51.496;6.410;2023-05-31T00:32:04;33.95;31.36;43.81;;
66335;Laerm;53138;51.496;6.410;2023-05-31T00:32:15;32.95;31.19;36.80;;
66335;Laerm;53138;51.496;6.410;2023-05-31T00:32:25;34.20;32.17;38.33;;
66335;Laerm;53138;51.496;6.410;2023-05-31T00:32:35;33.41;31.53;35.03;;
66335;Laerm;53138;51.496;6.410;2023-05-31T00:32:45;34.38;31.67;39.30;;
66335;Laerm;53138;51.496;6.410;2023-05-31T00:32:56;35.79;33.48;39.28;;
66335;Laerm;53138;51.496;6.410;2023-05-31T00:33:06;35.37;32.92;43.43;;
66335;Laerm;53138;51.496;6.410;2023-05-31T00:33:16;34.94;32.50;40.38;;
66335;Laerm;53138;51.496;6.410;2023-05-31T00:33:26;36.22;32.70;40.34;;
66335;Laerm;53138;51.496;6.410;2023-05-31T00:33:37;33.56;30.99;41.68;;
66335;Laerm;53138;51.496;6.410;2023-05-31T00:33:47;32.20;30.48;36.14;;
66335;Laerm;53138;51.496;6.410;2023-05-31T00:33:57;33.39;31.00;42.65;;
66335;Laerm;53138;51.496;6.410;2023-05-31T00:34:07;34.51;31.10;45.47;;
66335;Laerm;53138;51.496;6.410;2023-05-31T00:34:20;33.75;32.26;36.41;;
66335;Laerm;53138;51.496;6.410;2023-05-31T00:34:30;37.42;33.98;39.66;;
66335;Laerm;53138;51.496;6.410;2023-05-31T00:34:40;36.73;32.92;39.65;;
66335;Laerm;53138;51.496;6.410;2023-05-31T00:34:51;32.96;31.53;34.25;;
66335;Laerm;53138;51.496;6.410;2023-05-31T00:35:01;32.69;31.26;34.35;;
66335;Laerm;53138;51.496;6.410;2023-05-31T00:35:11;35.32;31.43;47.48;;
66335;Laerm;53138;51.496;6.410;2023-05-31T00:35:21;37.51;31.56;47.38;;
66335;Laerm;53138;51.496;6.410;2023-05-31T00:35:31;33.91;31.43;45.07;;
66335;Laerm;53138;51.496;6.410;2023-05-31T00:35:42;33.37;31.73;41.43;;
66335;Laerm;53138;51.496;6.410;2023-05-31T00:35:52;34.48;31.85;38.10;;
66335;Laerm;53138;51.496;6.410;2023-05-31T00:36:02;35.68;32.94;40.46;;
66335;Laerm;53138;51.496;6.410;2023-05-31T00:36:12;39.15;35.59;51.95;;
66335;Laerm;53138;51.496;6.410;2023-05-31T00:36:23;36.50;33.73;39.55;;
66335;Laerm;53138;51.496;6.410;2023-05-31T00:36:33;34.16;32.39;41.90;;
66335;Laerm;53138;51.496;6.410;2023-05-31T00:36:43;33.94;31.88;39.57;;
66335;Laerm;53138;51.496;6.410;2023-05-31T00:36:54;35.04;31.85;43.83;;
66335;Laerm;53138;51.496;6.410;2023-05-31T00:37:04;41.13;34.52;48.24;;
66335;Laerm;53138;51.496;6.410;2023-05-31T00:37:14;37.23;31.80;48.44;;
66335;Laerm;53138;51.496;6.410;2023-05-31T00:37:24;34.35;31.68;42.31;;
66335;Laerm;53138;51.496;6.410;2023-05-31T00:37:35;35.93;34.03;40.81;;
66335;Laerm;53138;51.496;6.410;2023-05-31T00:37:47;35.60;32.54;41.52;;
66335;Laerm;53138;51.496;6.410;2023-05-31T00:37:59;36.36;33.68;38.75;;
66335;Laerm;53138;51.496;6.410;2023-05-31T00:38:09;39.14;31.85;50.36;;
66335;Laerm;53138;51.496;6.410;2023-05-31T00:38:20;33.99;31.47;47.73;;
66335;Laerm;53138;51.496;6.410;2023-05-31T00:38:30;34.97;31.62;38.92;;
66335;Laerm;53138;51.496;6.410;2023-05-31T00:38:40;36.41;34.47;41.99;;
66335;Laerm;53138;51.496;6.410;2023-05-31T00:38:50;33.99;31.72;37.69;;
66335;Laerm;53138;51.496;6.410;2023-05-31T00:39:01;32.38;30.77;35.06;;
66335;Laerm;53138;51.496;6.410;2023-05-31T00:39:11;39.56;31.10;52.08;;
66335;Laerm;53138;51.496;6.410;2023-05-31T00:39:21;42.83;32.05;56.92;;
66335;Laerm;53138;51.496;6.410;2023-05-31T00:39:31;32.53;30.97;35.56;;
66335;Laerm;53138;51.496;6.410;2023-05-31T00:39:42;32.80;30.93;42.00;;
66335;Laerm;53138;51.496;6.410;2023-05-31T00:39:52;32.63;30.55;39.32;;
66335;Laerm;53138;51.496;6.410;2023-05-31T00:40:03;32.32;30.84;33.71;;
66335;Laerm;53138;51.496;6.410;2023-05-31T00:40:15;32.09;30.06;34.45;;
66335;Laerm;53138;51.496;6.410;2023-05-31T00:40:25;32.10;30.45;33.50;;
66335;Laerm;53138;51.496;6.410;2023-05-31T00:40:35;32.62;31.04;34.75;;
66335;Laerm;53138;51.496;6.410;2023-05-31T00:40:45;32.32;30.89;34.07;;
66335;Laerm;53138;51.496;6.410;2023-05-31T00:40:57;33.31;31.55;36.42;;
66335;Laerm;53138;51.496;6.410;2023-05-31T00:41:08;33.76;31.79;36.01;;
66335;Laerm;53138;51.496;6.410;2023-05-31T00:41:18;32.88;31.06;36.08;;
66335;Laerm;53138;51.496;6.410;2023-05-31T00:41:29;34.51;32.38;38.19;;
66335;Laerm;53138;51.496;6.410;2023-05-31T00:41:39;35.34;31.55;39.07;;
66335;Laerm;53138;51.496;6.410;2023-05-31T00:41:49;35.39;32.41;39.85;;
66335;Laerm;53138;51.496;6.410;2023-05-31T00:42:00;33.46;31.67;37.80;;
66335;Laerm;53138;51.496;6.410;2023-05-31T00:42:10;33.11;31.31;41.24;;
66335;Laerm;53138;51.496;6.410;2023-05-31T00:42:21;36.07;31.18;50.09;;
66335;Laerm;53138;51.496;6.410;2023-05-31T00:42:31;35.22;31.75;46.29;;
66335;Laerm;53138;51.496;6.410;2023-05-31T00:42:42;34.60;31.80;43.19;;
66335;Laerm;53138;51.496;6.410;2023-05-31T00:42:52;35.93;32.10;42.68;;
66335;Laerm;53138;51.496;6.410;2023-05-31T00:43:02;34.69;32.14;39.87;;
66335;Laerm;53138;51.496;6.410;2023-05-31T00:43:12;34.78;31.65;45.22;;
66335;Laerm;53138;51.496;6.410;2023-05-31T00:43:23;34.07;32.13;36.32;;
66335;Laerm;53138;51.496;6.410;2023-05-31T00:43:33;34.30;32.37;35.74;;
66335;Laerm;53138;51.496;6.410;2023-05-31T00:43:43;32.77;30.57;37.82;;
66335;Laerm;53138;51.496;6.410;2023-05-31T00:43:53;36.62;32.02;45.65;;
66335;Laerm;53138;51.496;6.410;2023-05-31T00:44:03;37.69;30.72;53.01;;
66335;Laerm;53138;51.496;6.410;2023-05-31T00:44:14;33.30;31.45;35.93;;
66335;Laerm;53138;51.496;6.410;2023-05-31T00:44:24;34.28;32.48;37.68;;
66335;Laerm;53138;51.496;6.410;2023-05-31T00:44:35;35.40;32.16;38.50;;
66335;Laerm;53138;51.496;6.410;2023-05-31T00:44:45;33.87;32.22;37.22;;
66335;Laerm;53138;51.496;6.410;2023-05-31T00:44:55;33.50;31.66;37.20;;
66335;Laerm;53138;51.496;6.410;2023-05-31T00:45:06;34.66;32.43;36.83;;
66335;Laerm;53138;51.496;6.410;2023-05-31T00:45:16;33.67;31.84;36.61;;
66335;Laerm;53138;51.496;6.410;2023-05-31T00:45:27;33.99;32.08;36.48;;
66335;Laerm;53138;51.496;6.410;2023-05-31T00:45:38;32.91;31.32;35.36;;
66335;Laerm;53138;51.496;6.410;2023-05-31T00:45:49;35.08;32.47;37.10;;
66335;Laerm;53138;51.496;6.410;2023-05-31T00:45:59;34.49;32.48;37.49;;
66335;Laerm;53138;51.496;6.410;2023-05-31T00:46:11;33.07;31.53;35.39;;
66335;Laerm;53138;51.496;6.410;2023-05-31T00:46:26;33.83;31.08;37.18;;
66335;Laerm;53138;51.496;6.410;2023-05-31T00:46:38;34.96;32.42;37.72;;
66335;Laerm;53138;51.496;6.410;2023-05-31T00:46:50;33.07;31.64;34.84;;
66335;Laerm;53138;51.496;6.410;2023-05-31T00:47:00;33.34;31.53;35.05;;
66335;Laerm;53138;51.496;6.410;2023-05-31T00:47:10;33.24;31.72;36.68;;
66335;Laerm;53138;51.496;6.410;2023-05-31T00:47:21;33.21;31.19;42.21;;
66335;Laerm;53138;51.496;6.410;2023-05-31T00:47:31;33.59;31.18;41.80;;
66335;Laerm;53138;51.496;6.410;2023-05-31T00:47:41;32.71;30.74;34.86;;
66335;Laerm;53138;51.496;6.410;2023-05-31T00:47:52;33.24;31.80;35.09;;
66335;Laerm;53138;51.496;6.410;2023-05-31T00:48:02;32.85;31.45;34.28;;
66335;Laerm;53138;51.496;6.410;2023-05-31T00:48:12;33.06;31.49;35.53;;
66335;Laerm;53138;51.496;6.410;2023-05-31T00:48:23;39.08;31.20;57.16;;
66335;Laerm;53138;51.496;6.410;2023-05-31T00:48:33;34.05;32.19;42.28;;
66335;Laerm;53138;51.496;6.410;2023-05-31T00:48:44;36.64;34.15;43.96;;
66335;Laerm;53138;51.496;6.410;2023-05-31T00:48:55;34.30;32.09;38.47;;
66335;Laerm;53138;51.496;6.410;2023-05-31T00:49:06;35.76;32.81;39.16;;
66335;Laerm;53138;51.496;6.410;2023-05-31T00:49:16;38.44;33.99;48.16;;
66335;Laerm;53138;51.496;6.410;2023-05-31T00:49:27;36.42;32.66;46.45;;
66335;Laerm;53138;51.496;6.410;2023-05-31T00:49:38;36.45;33.09;51.17;;
66335;Laerm;53138;51.496;6.410;2023-05-31T00:49:49;33.88;31.79;37.51;;
66335;Laerm;53138;51.496;6.410;2023-05-31T00:49:59;37.83;32.77;48.79;;
66335;Laerm;53138;51.496;6.410;2023-05-31T00:50:09;35.43;32.85;41.20;;
66335;Laerm;53138;51.496;6.410;2023-05-31T00:50:20;35.59;33.64;41.33;;
66335;Laerm;53138;51.496;6.410;2023-05-31T00:50:30;37.47;32.50;47.64;;
66335;Laerm;53138;51.496;6.410;2023-05-31T00:50:41;34.49;32.39;46.55;;
66335;Laerm;53138;51.496;6.410;2023-05-31T00:50:51;33.63;32.13;35.73;;
66335;Laerm;53138;51.496;6.410;2023-05-31T00:51:01;34.01;31.66;36.10;;
66335;Laerm;53138;51.496;6.410;2023-05-31T00:51:12;32.96;30.87;38.66;;
66335;Laerm;53138;51.496;6.410;2023-05-31T00:51:22;36.54;31.42;50.27;;
66335;Laerm;53138;51.496;6.410;2023-05-31T00:51:33;38.12;32.19;48.39;;
66335;Laerm;53138;51.496;6.410;2023-05-31T00:51:44;37.78;32.55;49.03;;
66335;Laerm;53138;51.496;6.410;2023-05-31T00:51:55;36.05;32.96;49.82;;
66335;Laerm;53138;51.496;6.410;2023-05-31T00:52:06;35.61;33.42;40.75;;
66335;Laerm;53138;51.496;6.410;2023-05-31T00:52:17;36.97;33.64;47.69;;
66335;Laerm;53138;51.496;6.410;2023-05-31T00:52:27;34.58;32.50;39.20;;
66335;Laerm;53138;51.496;6.410;2023-05-31T00:52:38;37.99;31.44;55.70;;
66335;Laerm;53138;51.496;6.410;2023-05-31T00:52:49;33.22;31.06;37.26;;
66335;Laerm;53138;51.496;6.410;2023-05-31T00:52:59;33.74;32.08;38.24;;
66335;Laerm;53138;51.496;6.410;2023-05-31T00:53:11;34.71;31.80;42.57;;
66335;Laerm;53138;51.496;6.410;2023-05-31T00:53:22;33.73;32.04;41.73;;
66335;Laerm;53138;51.496;6.410;2023-05-31T00:53:32;33.50;31.18;37.78;;
66335;Laerm;53138;51.496;6.410;2023-05-31T00:53:43;34.27;32.14;44.86;;
66335;Laerm;53138;51.496;6.410;2023-05-31T00:53:54;35.33;31.44;47.33;;
66335;Laerm;53138;51.496;6.410;2023-05-31T00:54:05;34.49;31.64;45.90;;
66335;Laerm;53138;51.496;6.410;2023-05-31T00:54:16;33.35;30.98;41.41;;
66335;Laerm;53138;51.496;6.410;2023-05-31T00:54:27;31.77;30.47;33.23;;
66335;Laerm;53138;51.496;6.410;2023-05-31T00:54:38;33.39;30.38;35.20;;
66335;Laerm;53138;51.496;6.410;2023-05-31T00:54:49;33.09;30.89;38.47;;
66335;Laerm;53138;51.496;6.410;2023-05-31T00:55:00;33.93;30.48;43.37;;
66335;Laerm;53138;51.496;6.410;2023-05-31T00:55:10;33.98;31.48;37.21;;
66335;Laerm;53138;51.496;6.410;2023-05-31T00:55:21;32.98;31.67;34.54;;
66335;Laerm;53138;51.496;6.410;2023-05-31T00:55:31;32.88;31.53;34.19;;
66335;Laerm;53138;51.496;6.410;2023-05-31T00:55:42;37.11;31.58;47.81;;
66335;Laerm;53138;51.496;6.410;2023-05-31T00:55:52;34.59;31.29;46.13;;
66335;Laerm;53138;51.496;6.410;2023-05-31T00:56:03;35.19;31.88;44.75;;
66335;Laerm;53138;51.496;6.410;2023-05-31T00:56:14;37.60;31.71;51.44;;
66335;Laerm;53138;51.496;6.410;2023-05-31T00:56:25;36.45;34.08;44.41;;
66335;Laerm;53138;51.496;6.410;2023-05-31T00:56:35;35.95;33.50;42.61;;
66335;Laerm;53138;51.496;6.410;2023-05-31T00:56:46;33.97;31.81;35.99;;
66335;Laerm;53138;51.496;6.410;2023-05-31T00:56:56;32.78;31.24;34.79;;
66335;Laerm;53138;51.496;6.410;2023-05-31T00:57:07;32.84;31.14;37.41;;
66335;Laerm;53138;51.496;6.410;2023-05-31T00:57:17;33.15;31.56;34.99;;
66335;Laerm;53138;51.496;6.410;2023-05-31T00:57:27;34.92;31.95;37.62;;
66335;Laerm;53138;51.496;6.410;2023-05-31T00:57:38;40.04;35.08;44.26;;
66335;Laerm;53138;51.496;6.410;2023-05-31T00:57:49;34.59;32.12;37.84;;
66335;Laerm;53138;51.496;6.410;2023-05-31T00:57:59;33.32;31.60;35.32;;
66335;Laerm;53138;51.496;6.410;2023-05-31T00:58:10;39.89;32.82;51.22;;
66335;Laerm;53138;51.496;6.410;2023-05-31T00:58:20;37.41;32.04;47.21;;